• Join FlightAware (Why Join?)
  • Login
  • US Flag 
06:24PM EDT


 

Airport Tracker/Info


-or-


 

Live Flight TrackerFlight Track Log ✈ AXM5240 ✈ 11-Nov-2013 ✈ WMKK / KUL - WBGB / BTU

Flight Track Log - Related Links

Times and Time Zones

All times are in EST time to prevent confusion due to time zone crossing. See the AXM5240 flight status page for this flight to view local times or setup timezone preferences in your user account.

Time Position Orientation Groundspeed Altitude Reporting Facility
EST Latitude Longitude Course Direction KTS MPH feet Rate Location/Type
03:18AM 2.8400 101.6630 327° Northwest 250 288 2,700  Level FlightAware
03:18AM 2.8710 101.6520 340° North 246 283 4,300 3,060 Climbing FlightAware
03:19AM 2.8920 101.6620 25° Northeast 246 283 5,200 1,980 Climbing FlightAware
03:19AM 2.9120 101.7050 65° Northeast 276 318 6,300 2,040 Climbing FlightAware
03:20AM 2.9260 101.7420 69° East 283 326 7,600 2,460 Climbing FlightAware
03:20AM 2.9420 101.7840 69° East 287 330 9,000 2,160 Climbing FlightAware
03:21AM 2.9530 101.8120 69° East 300 345 9,800 1,920 Climbing FlightAware
03:22AM 2.9760 101.8700 68° East 320 368 11,200 1,440 Climbing FlightAware
03:22AM 2.9880 101.9010 69° East 350 403 11,700 1,500 Climbing FlightAware
03:23AM 3.0210 101.9850 69° East 362 417 13,100 2,100 Climbing FlightAware
03:23AM 3.0400 102.0350 69° East 368 423 14,200 1,920 Climbing FlightAware
03:24AM 3.0600 102.0860 69° East 370 426 15,200 1,860 Climbing FlightAware
03:25AM 3.0890 102.1610 69° East 376 433 16,700 1,800 Climbing FlightAware
03:25AM 3.1030 102.1970 69° East 381 438 17,300 1,440 Climbing FlightAware
03:26AM 3.1320 102.2710 69° East 390 449 18,300 1,500 Climbing FlightAware
03:26AM 3.1540 102.3290 69° East 395 455 19,200 1,500 Climbing FlightAware
03:27AM 3.1760 102.3690 61° Northeast 397 457 19,800 1,680 Climbing FlightAware
03:27AM 3.2040 102.4080 54° Northeast 396 456 20,600 1,440 Climbing FlightAware
03:28AM 3.2340 102.4740 66° East 400 460 21,400 1,200 Climbing FlightAware
03:29AM 3.2500 102.5760 81° East 408 470 22,500 1,200 Climbing FlightAware
03:29AM 3.2620 102.6500 81° East 412 474 23,300 1,080 Climbing FlightAware
03:30AM 3.2610 102.7180 91° East 416 479 23,900 1,080 Climbing FlightAware
03:30AM 3.2570 102.7660 95° East 417 480 24,400 1,080 Climbing FlightAware
03:31AM 3.2490 102.8430 96° East 426 490 25,100 900 Climbing FlightAware
03:32AM 3.2420 102.9220 95° East 431 496 25,600 840 Climbing FlightAware
03:32AM 3.2360 102.9810 96° East 433 498 26,100 840 Climbing FlightAware
03:33AM 3.2340 103.0820 91° East 437 503 26,800 720 Climbing FlightAware
03:35AM 3.3060 103.2910 71° East 454 522 28,100 780 Climbing FlightAware
03:35AM 3.3260 103.3270 61° Northeast 445 512 28,600 900 Climbing FlightAware
03:36AM 3.3620 103.3990 63° Northeast 425 489 29,000 360 Climbing FlightAware
03:36AM 3.3690 103.4470 82° East 423 487 29,000  Level FlightAware
03:37AM 3.3580 103.5150 99° East 426 490 29,000  Level FlightAware
03:37AM 3.3390 103.5820 106° East 427 491 29,000 240 Level FlightAware
03:38AM 3.3260 103.6290 105° East 429 494 29,300 240 Climbing FlightAware
03:39AM 3.3090 103.6940 105° East 429 494 29,300  Level FlightAware
03:39AM 3.2880 103.7720 105° East 429 494 29,300 1,260 Level FlightAware
03:40AM 3.2620 103.8620 106° East 437 503 31,000 2,280 Climbing FlightAware
03:40AM 3.2520 103.8960 106° East 442 509 31,200 720 Climbing FlightAware
03:41AM 3.2220 104.0040 106° East 448 516 31,900 720 Climbing FlightAware
03:42AM 3.2070 104.0570 106° East 447 514 32,200 180 Climbing FlightAware
03:42AM 3.1850 104.1420 105° East 447 514 32,200 600 Level FlightAware
03:43AM 3.1670 104.2040 106° East 441 507 33,000 1,140 Climbing FlightAware
03:43AM 3.1580 104.2370 105° East 442 509 33,000  Level FlightAware
03:44AM 3.1340 104.3250 105° East 442 509 33,000  Level FlightAware
03:45AM 3.1090 104.4160 105° East 448 516 33,000 60 Level FlightAware
03:45AM 3.0870 104.4940 106° East 445 512 33,100  Climbing FlightAware
03:46AM 3.0510 104.6250 105° East 445 512 33,100 -120 Level FlightAware
03:47AM 3.0340 104.6900 105° East 445 512 33,000 -120 Descending FlightAware
03:47AM 3.0160 104.7530 106° East 448 516 33,000  Level FlightAware
03:48AM 2.9870 104.8560 106° East 442 509 33,000  Level FlightAware
03:49AM 2.9660 104.9340 105° East 440 506 33,000  Level FlightAware
03:49AM 2.9530 104.9830 105° East 440 506 33,000  Level FlightAware
03:50AM 2.9370 105.0440 105° East 440 506 33,000  Level FlightAware
03:50AM 2.9140 105.1230 106° East 436 502 33,000  Level FlightAware
03:51AM 2.8940 105.1940 106° East 436 502 33,000  Level FlightAware
03:52AM 2.8700 105.2940 104° East 437 503 33,000  Level FlightAware
03:53AM 2.8610 105.4280 94° East 439 505 33,000  Level FlightAware
03:54AM 2.8530 105.4880 98° East 440 506 33,000  Level FlightAware
03:55AM 2.8320 105.6040 100° East 445 512 33,000  Level FlightAware
03:56AM 2.8040 105.7590 100° East 443 510 33,000  Level FlightAware
03:56AM 2.7880 105.8200 105° East 434 499 33,000  Level FlightAware
03:57AM 2.7680 105.8850 107° East 442 509 33,000  Level FlightAware
03:57AM 2.7500 105.9440 107° East 440 506 33,000  Level FlightAware
03:58AM 2.7380 105.9860 106° East 440 506 33,000  Level FlightAware
03:59AM 2.6920 106.1330 107° East 440 506 33,000  Level FlightAware
04:00AM 2.6690 106.2040 108° East 443 510 33,000  Level FlightAware
04:00AM 2.6500 106.2640 108° East 441 507 33,000  Level FlightAware
04:01AM 2.6240 106.3460 108° East 445 512 33,000  Level FlightAware
04:01AM 2.6050 106.4080 107° East 445 512 33,000  Level FlightAware
04:02AM 2.5760 106.4940 109° East 445 512 33,000  Level FlightAware
04:03AM 2.5540 106.5620 108° East 446 513 33,000  Level FlightAware
04:03AM 2.5330 106.6340 106° East 444 511 33,000  Level FlightAware
04:04AM 2.5120 106.7060 106° East 436 502 33,000  Level FlightAware
04:04AM 2.4940 106.7720 105° East 441 507 33,000  Level FlightAware
04:05AM 2.4770 106.8290 107° East 440 506 33,000  Level FlightAware
04:06AM 2.4530 106.9060 107° East 439 505 33,000  Level FlightAware
04:06AM 2.4350 106.9660 107° East 439 505 33,000  Level FlightAware
04:07AM 2.4190 107.0180 107° East 437 503 33,000  Level FlightAware
04:08AM 2.3780 107.1490 107° East 439 505 33,000  Level FlightAware
04:08AM 2.3540 107.2270 107° East 438 504 33,000  Level FlightAware
04:09AM 2.3390 107.2760 107° East 438 504 33,000  Level FlightAware
04:09AM 2.3160 107.3470 108° East 438 504 33,000  Level FlightAware
04:10AM 2.2960 107.4130 107° East 436 502 33,000  Level FlightAware
04:10AM 2.2770 107.4720 108° East 435 501 33,000  Level FlightAware
04:11AM 2.2510 107.5570 107° East 441 507 33,000  Level FlightAware
04:12AM 2.2310 107.6200 108° East 435 501 33,000  Level FlightAware
04:12AM 2.2130 107.6790 107° East 436 502 33,000  Level FlightAware
04:13AM 2.1890 107.7590 107° East 432 497 33,000  Level FlightAware
04:14AM 2.1760 107.8160 103° East 437 503 33,000  Level FlightAware
04:15AM 2.1500 107.9400 102° East 437 503 33,000  Level FlightAware
04:15AM 2.1370 108.0010 102° East 437 503 33,000  Level FlightAware
04:16AM 2.1200 108.0820 102° East 437 503 33,000  Level FlightAware
04:17AM 2.1070 108.1420 102° East 437 503 33,000  Level FlightAware
04:18AM 2.3430 108.3160 36° Northeast 435 501 33,000  Level FlightAware
04:18AM 2.3680 108.3800 69° East 431 496 33,000  Level FlightAware
04:19AM 2.4020 108.4700 69° East 434 499 33,000  Level FlightAware
04:20AM 2.4310 108.5450 69° East 430 495 33,000  Level FlightAware
04:21AM 2.4590 108.6160 68° East 437 503 33,000  Level FlightAware
04:21AM 2.4840 108.6810 69° East 432 497 33,000  Level FlightAware
04:22AM 2.5150 108.7630 69° East 432 497 33,000  Level FlightAware
04:22AM 2.5400 108.8260 68° East 432 497 33,000  Level FlightAware
04:23AM 2.5760 108.9320 71° East 435 501 33,000  Level FlightAware
04:24AM 2.5900 109.0110 80° East 436 502 33,000  Level FlightAware
04:24AM 2.5990 109.0740 82° East 432 497 33,000  Level FlightAware
04:25AM 2.6110 109.1550 82° East 435 501 33,000  Level FlightAware
04:26AM 2.6210 109.2270 82° East 435 501 33,000  Level FlightAware
04:26AM 2.6320 109.3060 82° East 434 499 33,000  Level FlightAware
04:27AM 2.6420 109.3750 82° East 435 501 33,000  Level FlightAware
04:28AM 2.6580 109.4880 82° East 434 499 33,000  Level FlightAware
04:29AM 2.6700 109.5720 82° East 433 498 33,000  Level FlightAware
04:29AM 2.6800 109.6420 82° East 431 496 33,000  Level FlightAware
04:30AM 2.6900 109.7140 82° East 429 494 33,000  Level FlightAware
04:30AM 2.7000 109.7840 82° East 428 493 33,000  Level FlightAware
04:31AM 2.7150 109.8920 82° East 428 493 33,000  Level FlightAware
04:32AM 2.7290 109.9860 82° East 430 495 33,000  Level FlightAware
04:33AM 2.7420 110.0810 82° East 433 498 33,000  Level FlightAware
04:34AM 2.7510 110.1440 82° East 434 499 33,000  Level FlightAware
04:34AM 2.7650 110.2430 82° East 434 499 33,000  Level FlightAware
04:35AM 2.7760 110.3190 82° East 434 499 33,000  Level FlightAware
04:36AM 2.7870 110.3980 82° East 435 501 33,000  Level FlightAware
04:36AM 2.7970 110.4710 82° East 436 502 33,000  Level FlightAware
04:37AM 2.8130 110.5830 82° East 437 503 33,000  Level FlightAware
04:38AM 2.8220 110.6450 82° East 434 499 33,000  Level FlightAware
04:38AM 2.8320 110.7210 82° East 433 498 33,000  Level FlightAware
04:39AM 2.8430 110.7980 82° East 436 502 33,000  Level FlightAware
04:40AM 2.8530 110.8680 82° East 432 497 33,000  Level FlightAware
04:40AM 2.8680 110.9760 82° East 433 498 33,000  Level FlightAware
04:41AM 2.8770 111.0410 82° East 433 498 33,000  Level FlightAware
04:42AM 2.8880 111.1180 82° East 434 499 33,000  Level FlightAware
04:42AM 2.8980 111.1840 81° East 434 499 33,000  Level FlightAware
04:43AM 2.9030 111.2250 83° East 434 499 33,000 -120 Level FlightAware
04:43AM 2.9160 111.3160 82° East 432 497 32,900 -120 Descending FlightAware
04:44AM 2.9250 111.3810 82° East 432 497 32,900  Level FlightAware
04:45AM 2.9340 111.4420 82° East 432 497 32,900  Level FlightAware
04:45AM 2.9420 111.5030 83° East 432 497 32,900  Level FlightAware
04:46AM 2.9540 111.5840 82° East 432 497 32,900  Level FlightAware
04:47AM 2.9620 111.6440 82° East 432 497 32,900  Level FlightAware
04:47AM 2.9680 111.6850 82° East 432 497 32,900  Level FlightAware
04:48AM 2.9790 111.7660 82° East 432 497 32,900  Level FlightAware
04:48AM 2.9850 111.8060 81° East 432 497 32,900  Level FlightAware
04:49AM 2.9930 111.8670 83° East 432 497 32,900  Level FlightAware
04:49AM 3.0020 111.9270 81° East 432 497 32,900  Level FlightAware
04:50AM 3.0110 111.9900 82° East 432 497 32,900  Level FlightAware
04:51AM 3.0190 112.0500 82° East 432 497 32,900  Level FlightAware
04:51AM 3.0280 112.1110 82° East 432 497 32,900  Level FlightAware
04:52AM 3.0390 112.1930 82° East 432 497 32,900  Level FlightAware
04:53AM 3.0480 112.2540 82° East 432 497 32,900  Level FlightAware
04:53AM 3.0560 112.3150 83° East 432 497 32,900  Level FlightAware
04:56AM 3.0849 112.5234 82° East  Level FlightAware Approximate
04:57AM 3.0956 112.6006 82° East  Level FlightAware Approximate
04:58AM 3.1018 112.6925 82° East  Level Estimated
04:59AM 3.0956 112.6006 82° East  Level FlightAware Approximate
05:00AM 3.1018 112.6925 82° East  Level Estimated
05:01AM 3.0956 112.6006 82° East  Level FlightAware Approximate
05:02AM 3.1018 112.6925 82° East  Level Estimated
05:03AM 3.0956 112.6006 82° East  Level FlightAware Approximate
05:04AM 3.1018 112.6925 82° East  Level Estimated
05:05AM 3.0956 112.6006 82° East  Level FlightAware Approximate
05:06AM 3.1018 112.6925 82° East  Level Estimated
05:07AM 3.0956 112.6006 82° East  Level FlightAware Approximate
05:08AM 3.1018 112.6925 82° East  Level Estimated
05:09AM 3.0956 112.6006 82° East  Level FlightAware Approximate
05:10AM 3.1018 112.6925 82° East  Level Estimated
05:11AM 3.0956 112.6006 82° East  Level FlightAware Approximate
05:12AM 3.1018 112.6925 82° East  Level Estimated
05:13AM 3.0956 112.6006 82° East  Level FlightAware Approximate
05:14AM 3.1018 112.6925 82° East  Level Estimated
05:15AM 3.0956 112.6006 82° East  Level FlightAware Approximate
05:16AM 3.1018 112.6925 82° East  Level Estimated
05:17AM 3.0956 112.6006 82° East  Level FlightAware Approximate
05:18AM 3.1018 112.6925 82° East  Level Estimated
05:19AM 3.0956 112.6006 82° East  Level FlightAware Approximate
05:20AM 3.1018 112.6925 82° East  Level Estimated
05:21AM 3.0956 112.6006 82° East  Level FlightAware Approximate
05:22AM 3.1018 112.6925 82° East  Level Estimated
05:23AM 3.0956 112.6006 82° East  Level FlightAware Approximate
05:24AM 3.1018 112.6925 82° East  Level Estimated
05:25AM 3.0956 112.6006 82° East  Level FlightAware Approximate
05:26AM 3.1018 112.6925 82° East  Level Estimated
05:27AM 3.0956 112.6006 82° East  Level FlightAware Approximate
05:28AM 3.1018 112.6925 82° East  Level Estimated
05:29AM 3.0956 112.6006 82° East  Level FlightAware Approximate